Time;durP1;ratioP1;P1;durP2;ratioP2;P2;SDS_P1;SDS_P2;PMS_P1;PMS_P2;Temp;Humidity;BMP_temperature;BMP_pressure;BME280_temperature;BME280_humidity;BME280_pressure;Samples;Min_cycle;Max_cycle;Signal;HPM_P1;HPM_P2
2022/10/17 00:00:21;;;;;;;18.10;12.35;;;;;;;8.03;62.81;100830.91;5012451;28;20033;-72
2022/10/17 00:02:46;;;;;;;25.35;12.57;;;;;;;7.55;64.43;100825.75;5013926;28;20073;-72
2022/10/17 00:05:12;;;;;;;20.08;11.50;;;;;;;7.66;64.23;100835.75;5006667;28;20034;-72
2022/10/17 00:07:38;;;;;;;19.40;11.68;;;;;;;7.93;63.51;100828.16;4993970;28;20034;-72
2022/10/17 00:10:06;;;;;;;17.50;10.95;;;;;;;8.16;63.13;100835.03;4994562;28;20048;-72
2022/10/17 00:12:31;;;;;;;14.65;10.68;;;;;;;7.67;64.31;100840.19;4994659;28;20401;-72
2022/10/17 00:14:56;;;;;;;15.18;10.82;;;;;;;8.05;63.61;100845.41;4994698;28;20039;-72
2022/10/17 00:17:22;;;;;;;16.55;11.82;;;;;;;7.50;65.35;100840.50;5002041;28;20030;-72
2022/10/17 00:19:47;;;;;;;17.23;11.48;;;;;;;6.78;68.10;100837.72;5011901;28;20488;-72
2022/10/17 00:22:13;;;;;;;28.83;12.40;;;;;;;6.74;68.42;100841.06;5012909;28;20044;-72
2022/10/17 00:24:38;;;;;;;19.90;12.10;;;;;;;6.85;68.27;100839.13;5012770;28;20116;-72
2022/10/17 00:27:04;;;;;;;20.77;11.55;;;;;;;6.81;68.16;100835.25;5012874;28;20030;-71
2022/10/17 00:29:29;;;;;;;22.27;11.52;;;;;;;6.43;69.19;100852.09;5014250;28;20026;-72
2022/10/17 00:31:56;;;;;;;16.13;11.05;;;;;;;6.52;69.35;100846.03;5013893;28;20045;-72
2022/10/17 00:34:21;;;;;;;21.00;11.55;;;;;;;6.63;68.96;100841.31;5012592;28;20045;-71
2022/10/17 00:36:47;;;;;;;13.70;10.35;;;;;;;6.95;68.20;100843.03;5012450;28;20080;-72
2022/10/17 00:39:12;;;;;;;21.35;12.35;;;;;;;6.77;68.49;100839.69;5011898;28;20362;-72
2022/10/17 00:41:38;;;;;;;17.40;10.88;;;;;;;7.12;67.41;100840.00;5013118;28;20026;-72
2022/10/17 00:44:24;;;;;;;21.48;11.88;;;;;;;7.19;66.99;100839.72;5012263;28;20026;-72
2022/10/17 00:46:49;;;;;;;15.15;10.98;;;;;;;7.45;66.38;100841.34;5012380;28;20092;-72
2022/10/17 00:49:15;;;;;;;18.25;11.02;;;;;;;7.72;65.71;100844.94;5010749;28;20026;-71
2022/10/17 00:51:48;;;;;;;15.25;10.75;;;;;;;7.59;65.05;100843.56;5010478;28;20452;-72
2022/10/17 00:54:16;;;;;;;17.75;10.95;;;;;;;7.45;65.85;100843.31;5010436;28;20049;-72
2022/10/17 00:56:44;;;;;;;16.52;11.00;;;;;;;7.67;65.17;100844.97;5012084;28;20520;-72
2022/10/17 00:59:12;;;;;;;17.63;10.60;;;;;;;7.78;64.59;100846.56;5012147;28;20108;-72
2022/10/17 01:01:42;;;;;;;16.85;9.65;;;;;;;7.90;64.37;100846.28;5013263;28;20018;-72
2022/10/17 01:04:08;;;;;;;21.33;12.48;;;;;;;7.73;64.66;100841.03;5012072;28;20060;-72
2022/10/17 01:06:33;;;;;;;22.38;12.13;;;;;;;7.42;65.45;100844.69;5012330;28;20077;-72
2022/10/17 01:08:59;;;;;;;20.33;11.57;;;;;;;6.95;67.45;100846.66;5011057;28;20026;-72
2022/10/17 01:11:55;;;;;;;14.60;11.27;;;;;;;6.95;67.89;100851.38;5012601;28;20461;-72
2022/10/17 01:14:39;;;;;;;15.57;10.35;;;;;;;7.16;67.30;100855.84;5013214;28;20018;-72
2022/10/17 01:17:23;;;;;;;17.77;10.48;;;;;;;7.22;67.03;100850.28;5012399;28;20022;-71
2022/10/17 01:19:51;;;;;;;22.00;11.90;;;;;;;7.49;66.29;100844.41;5012840;28;20515;-72
2022/10/17 01:22:31;;;;;;;15.23;10.63;;;;;;;7.63;65.52;100843.84;5010683;28;20056;-71
2022/10/17 01:25:16;;;;;;;;;;;;;;;7.47;65.51;100845.81;5013150;28;20479;-72
2022/10/17 01:28:22;;;;;;;21.58;13.25;;;;;;;7.48;65.74;100851.09;5011457;28;19909;-72
2022/10/17 01:31:14;;;;;;;25.00;13.02;;;;;;;7.60;65.93;100859.13;5012764;28;20484;-71
2022/10/17 01:33:40;;;;;;;25.90;13.18;;;;;;;7.73;65.39;100849.38;5009893;28;20049;-71
2022/10/17 01:36:30;;;;;;;27.92;17.13;;;;;;;7.79;65.29;100855.78;5011720;28;20021;-71
2022/10/17 01:39:24;;;;;;;24.45;14.20;;;;;;;7.85;65.24;100851.88;5012742;28;20034;-72
2022/10/17 01:42:00;;;;;;;27.58;14.02;;;;;;;7.89;64.67;100852.97;5010404;28;20563;-72
2022/10/17 01:44:35;;;;;;;32.05;14.38;;;;;;;7.77;64.93;100852.44;5010555;28;20088;-72
2022/10/17 01:47:06;;;;;;;21.92;13.57;;;;;;;7.78;64.61;100841.00;5012647;28;20436;-72
2022/10/17 01:49:34;;;;;;;20.15;10.93;;;;;;;7.84;64.55;100847.41;5010829;28;20045;-71
2022/10/17 01:52:05;;;;;;;19.35;11.38;;;;;;;7.46;65.50;100842.19;4991468;28;20022;-72
2022/10/17 01:54:54;;;;;;;18.48;11.27;;;;;;;7.09;66.58;100846.94;4992893;28;20398;-71
2022/10/17 01:57:35;;;;;;;16.92;11.63;;;;;;;6.86;67.62;100853.88;4991395;28;20030;-72
2022/10/17 02:00:03;;;;;;;16.17;11.38;;;;;;;6.82;67.87;100859.16;5006730;28;20070;-71
2022/10/17 02:02:30;;;;;;;19.67;11.27;;;;;;;6.88;67.35;100848.88;5010801;28;20041;-72
2022/10/17 02:04:56;;;;;;;16.08;10.65;;;;;;;6.82;67.46;100859.16;5011073;28;20026;-71
2022/10/17 02:07:21;;;;;;;17.33;11.75;;;;;;;6.25;68.66;100850.66;5012211;28;20124;-72
2022/10/17 02:09:47;;;;;;;23.45;11.65;;;;;;;6.18;69.27;100862.03;5011232;28;20112;-71
2022/10/17 02:12:33;;;;;;;19.70;11.00;;;;;;;6.41;68.82;100864.63;5012081;28;20018;-72
2022/10/17 02:15:05;;;;;;;14.88;10.55;;;;;;;6.49;67.97;100872.41;5012374;28;20026;-71
2022/10/17 02:18:08;;;;;;;15.27;10.75;;;;;;;6.39;68.75;100872.38;5010812;28;20026;-71
2022/10/17 02:20:48;;;;;;;18.30;11.32;;;;;;;6.02;69.68;100880.56;5011284;28;20401;-71
2022/10/17 02:23:38;;;;;;;21.13;12.13;;;;;;;5.87;70.53;100880.47;5011109;28;20056;-71
2022/10/17 02:26:13;;;;;;;18.77;11.75;;;;;;;5.73;71.37;100886.50;5012160;28;20034;-72
2022/10/17 02:28:46;;;;;;;15.13;10.68;;;;;;;5.54;72.22;100882.44;5010711;28;20519;-71
2022/10/17 02:31:50;;;;;;;16.48;10.70;;;;;;;5.62;72.73;100893.91;5010394;28;20455;-71
2022/10/17 02:34:24;;;;;;;16.40;12.15;;;;;;;5.77;72.16;100892.34;4994555;28;20551;-71
2022/10/17 02:36:59;;;;;;;21.83;11.35;;;;;;;5.91;71.26;100895.47;4992096;28;20026;-71
2022/10/17 02:39:28;;;;;;;16.05;11.85;;;;;;;5.84;71.16;100892.09;5010664;28;20112;-72
2022/10/17 02:41:55;;;;;;;22.27;11.05;;;;;;;6.04;70.71;100900.59;5011925;28;20029;-70
2022/10/17 02:44:22;;;;;;;15.70;11.05;;;;;;;6.16;70.35;100897.59;5011500;28;20088;-71
2022/10/17 02:46:55;;;;;;;14.43;10.13;;;;;;;6.49;68.82;100897.44;5011925;28;20030;-71
2022/10/17 02:49:30;;;;;;;16.23;10.93;;;;;;;6.56;68.15;100903.59;5009872;28;20397;-71
2022/10/17 02:52:13;;;;;;;22.73;11.32;;;;;;;6.08;70.14;100898.09;5010612;28;20500;-71
2022/10/17 02:54:41;;;;;;;14.68;10.90;;;;;;;6.03;70.40;100904.47;5007695;28;20592;-72
2022/10/17 02:57:17;;;;;;;22.35;12.57;;;;;;;5.72;71.70;100895.91;5009335;28;20029;-71
2022/10/17 02:59:45;;;;;;;18.27;13.18;;;;;;;5.73;72.16;100905.06;5011845;28;20026;-72
2022/10/17 03:02:10;;;;;;;17.85;11.13;;;;;;;5.88;71.41;100907.13;5010327;28;20409;-72
2022/10/17 03:04:36;;;;;;;25.02;13.25;;;;;;;5.99;70.67;100905.25;5010339;28;20034;-71
2022/10/17 03:07:02;;;;;;;19.58;13.15;;;;;;;5.60;71.77;100898.06;5011669;28;20025;-71
2022/10/17 03:09:27;;;;;;;20.42;13.02;;;;;;;5.66;71.39;100898.94;5010688;28;20111;-71
2022/10/17 03:11:53;;;;;;;19.70;11.93;;;;;;;5.12;73.92;100896.00;5008625;28;20026;-71
2022/10/17 03:14:18;;;;;;;18.52;11.73;;;;;;;5.13;74.39;100907.91;5010643;28;20022;-71
2022/10/17 03:16:43;;;;;;;16.50;10.85;;;;;;;5.10;73.16;100912.09;5011497;28;20460;-71
2022/10/17 03:19:09;;;;;;;18.20;12.70;;;;;;;5.30;72.11;100914.19;5011676;28;20026;-72
2022/10/17 03:21:36;;;;;;;18.55;11.45;;;;;;;5.62;71.31;100918.06;5010366;28;20052;-72
2022/10/17 03:24:02;;;;;;;18.75;10.57;;;;;;;5.89;69.99;100919.91;5008680;28;20034;-72
2022/10/17 03:26:28;;;;;;;15.48;10.60;;;;;;;6.04;69.50;100921.97;5011334;28;20036;-71
2022/10/17 03:28:54;;;;;;;18.25;10.90;;;;;;;5.83;69.55;100927.34;5010142;28;20034;-72
2022/10/17 03:31:20;;;;;;;16.63;11.45;;;;;;;5.74;70.23;100921.47;5011403;28;20083;-71
2022/10/17 03:33:46;;;;;;;16.90;11.32;;;;;;;5.57;72.27;100927.19;5011392;28;20069;-71
2022/10/17 03:36:13;;;;;;;20.25;13.70;;;;;;;5.61;72.81;100914.47;5011183;28;20057;-72
2022/10/17 03:38:39;;;;;;;27.80;14.35;;;;;;;5.39;73.68;100922.03;5008207;28;20057;-71
2022/10/17 03:41:05;;;;;;;18.65;13.05;;;;;;;5.47;74.32;100921.53;5010278;28;20099;-71
2022/10/17 03:43:31;;;;;;;21.83;13.20;;;;;;;5.72;73.05;100920.91;5012453;28;20455;-71
2022/10/17 03:45:58;;;;;;;29.63;13.27;;;;;;;5.93;72.42;100926.59;5014920;28;20477;-72
2022/10/17 03:48:25;;;;;;;19.50;11.80;;;;;;;6.03;71.81;100926.72;5014800;28;20401;-72
2022/10/17 03:50:51;;;;;;;22.98;11.80;;;;;;;6.15;71.75;100933.97;5014907;28;20109;-71
2022/10/17 03:53:16;;;;;;;17.23;11.57;;;;;;;6.37;70.73;100941.31;5012807;28;20041;-71
2022/10/17 03:55:42;;;;;;;18.25;11.30;;;;;;;6.52;70.02;100943.31;5014625;28;20083;-72
2022/10/17 03:58:07;;;;;;;15.07;10.75;;;;;;;6.06;70.88;100952.28;5013210;28;20025;-71
2022/10/17 04:00:35;;;;;;;18.52;11.15;;;;;;;6.24;70.04;100954.59;5012702;28;20049;-71
2022/10/17 04:03:00;;;;;;;18.65;11.35;;;;;;;6.40;69.68;100944.38;5014304;28;20030;-72
2022/10/17 04:05:25;;;;;;;22.33;13.75;;;;;;;6.42;68.64;100944.13;5014374;28;20037;-72
2022/10/17 04:07:51;;;;;;;18.67;12.30;;;;;;;6.26;68.48;100938.47;5012411;28;20049;-71
2022/10/17 04:10:17;;;;;;;27.13;13.02;;;;;;;5.80;70.57;100935.41;5014460;28;20120;-72
2022/10/17 04:12:42;;;;;;;21.73;14.50;;;;;;;5.57;71.38;100935.50;5013012;28;20420;-72
2022/10/17 04:15:08;;;;;;;18.00;12.20;;;;;;;5.30;72.58;100941.09;5011635;28;20030;-71
2022/10/17 04:17:34;;;;;;;17.83;11.43;;;;;;;5.10;73.95;100936.19;5014377;28;20407;-72
2022/10/17 04:19:59;;;;;;;23.40;11.52;;;;;;;4.87;74.50;100930.72;5012844;28;20029;-72
2022/10/17 04:22:24;;;;;;;21.50;12.00;;;;;;;4.82;75.33;100925.09;5011345;28;20033;-72
2022/10/17 04:24:50;;;;;;;27.90;15.05;;;;;;;4.96;74.83;100924.72;5013331;28;20084;-70
2022/10/17 04:27:15;;;;;;;30.08;15.95;;;;;;;4.98;74.90;100930.81;5026859;28;20037;-70
2022/10/17 04:29:42;;;;;;;31.92;16.92;;;;;;;5.14;74.47;100935.41;5032748;28;20503;-69
2022/10/17 04:32:08;;;;;;;27.92;15.98;;;;;;;5.37;73.79;100938.94;5016336;28;20064;-70
2022/10/17 04:34:33;;;;;;;26.33;14.55;;;;;;;5.09;73.39;100940.94;5013413;28;20489;-71
2022/10/17 04:36:59;;;;;;;34.72;17.98;;;;;;;4.67;75.59;100942.41;5011581;28;20390;-69
2022/10/17 04:39:24;;;;;;;22.27;12.32;;;;;;;4.46;76.69;100944.06;5009383;28;20389;-70
2022/10/17 04:41:50;;;;;;;24.95;14.15;;;;;;;4.80;75.53;100960.56;5013123;28;20052;-72
2022/10/17 04:44:15;;;;;;;23.13;12.85;;;;;;;5.04;73.98;100968.59;5013454;28;20465;-70
2022/10/17 04:46:41;;;;;;;25.45;15.55;;;;;;;5.32;73.23;100956.38;5013845;28;20505;-70
2022/10/17 04:49:07;;;;;;;23.70;16.15;;;;;;;5.33;72.32;100962.78;5013190;28;20096;-69
2022/10/17 04:51:32;;;;;;;30.42;17.55;;;;;;;5.08;73.08;100963.38;5012333;28;20029;-70
2022/10/17 04:53:58;;;;;;;26.63;17.00;;;;;;;5.22;73.07;100964.59;5010844;28;20060;-69
2022/10/17 04:56:24;;;;;;;32.17;16.55;;;;;;;5.55;71.91;100971.03;5013761;28;20060;-69
2022/10/17 04:58:50;;;;;;;22.67;13.77;;;;;;;5.68;71.31;100969.75;5012255;28;20036;-69
2022/10/17 05:01:20;;;;;;;49.30;14.88;;;;;;;5.43;71.80;100974.00;5013118;28;20026;-70
2022/10/17 05:03:46;;;;;;;;;;;;;;;4.80;74.42;100977.19;5011483;28;20026;-70
2022/10/17 05:06:23;;;;;;;28.45;14.45;;;;;;;4.81;74.85;100973.31;5013566;28;20206;-70
2022/10/17 05:08:49;;;;;;;24.85;15.55;;;;;;;5.13;73.46;100988.38;5010311;28;20022;-71
2022/10/17 05:11:26;;;;;;;23.00;13.32;;;;;;;5.55;72.82;100986.81;5013206;28;20026;-68
2022/10/17 05:13:54;;;;;;;20.65;12.63;;;;;;;5.61;72.27;100985.78;5011834;28;20569;-72
2022/10/17 05:16:20;;;;;;;21.13;12.27;;;;;;;5.83;71.36;100994.00;5011535;28;20057;-69
2022/10/17 05:18:55;;;;;;;22.23;13.10;;;;;;;5.92;70.67;100991.59;5013110;28;20539;-67
2022/10/17 05:21:23;;;;;;;25.00;13.50;;;;;;;6.20;69.62;100997.06;5013193;28;20018;-68
2022/10/17 05:23:48;;;;;;;49.05;18.63;;;;;;;6.01;69.45;100991.94;5012111;28;20030;-69
2022/10/17 05:26:15;;;;;;;40.15;22.63;;;;;;;6.08;69.23;101011.16;5009732;28;20041;-70
2022/10/17 05:28:40;;;;;;;41.67;23.33;;;;;;;6.18;69.69;101008.47;5011764;28;20022;-68
2022/10/17 05:31:07;;;;;;;33.30;17.73;;;;;;;6.43;68.68;101012.50;5009436;28;20133;-70
2022/10/17 05:33:34;;;;;;;22.83;15.57;;;;;;;6.64;68.14;101018.19;5010521;28;20746;-70
2022/10/17 05:36:00;;;;;;;28.95;15.50;;;;;;;6.91;67.32;101022.75;5012746;28;20110;-72
2022/10/17 05:38:26;;;;;;;30.17;13.80;;;;;;;6.64;68.56;101024.56;5011440;28;20072;-67
2022/10/17 05:40:56;;;;;;;18.42;12.20;;;;;;;6.48;69.82;101028.38;5010943;28;20497;-69
2022/10/17 05:43:22;;;;;;;18.45;11.93;;;;;;;6.88;68.90;101046.38;5012737;28;20022;-68
2022/10/17 05:45:47;;;;;;;18.20;11.45;;;;;;;7.18;67.98;101044.81;5011581;28;20041;-67
2022/10/17 05:48:12;;;;;;;24.40;12.98;;;;;;;7.20;67.91;101038.97;5012452;28;20034;-67
2022/10/17 05:50:38;;;;;;;21.13;11.60;;;;;;;6.76;70.18;101048.53;5007044;28;20026;-70
2022/10/17 05:53:04;;;;;;;15.50;11.38;;;;;;;6.72;71.21;101049.09;4997613;28;20026;-68
2022/10/17 05:55:29;;;;;;;26.90;16.98;;;;;;;6.84;70.75;101057.19;5013782;28;20053;-71
2022/10/17 05:57:55;;;;;;;23.55;16.20;;;;;;;6.75;72.69;101053.25;5011827;28;20505;-68
2022/10/17 06:00:20;;;;;;;19.02;11.95;;;;;;;6.63;74.22;101047.06;5010080;28;20404;-71
2022/10/17 06:02:46;;;;;;;20.50;11.00;;;;;;;6.72;75.24;101063.00;5003429;28;20588;-69
2022/10/17 06:05:13;;;;;;;18.10;12.10;;;;;;;6.82;74.44;101062.19;5002852;28;20030;-67
2022/10/17 06:07:39;;;;;;;24.05;14.00;;;;;;;6.81;75.16;101063.31;5002466;28;20026;-71
2022/10/17 06:10:05;;;;;;;20.02;12.25;;;;;;;7.02;74.74;101052.28;5008270;28;20045;-71
2022/10/17 06:12:30;;;;;;;15.57;12.30;;;;;;;7.29;73.58;101065.16;5002011;28;20032;-70
2022/10/17 06:14:56;;;;;;;16.95;11.32;;;;;;;7.59;71.76;101071.91;5009686;28;20033;-75
2022/10/17 06:17:21;;;;;;;17.67;13.55;;;;;;;7.61;71.16;101069.69;5010214;28;20034;-73
2022/10/17 06:19:47;;;;;;;19.00;12.57;;;;;;;7.91;70.20;101065.25;5010856;28;20029;-72
2022/10/17 06:22:13;;;;;;;21.15;13.13;;;;;;;8.04;69.42;101066.66;5011190;28;20026;-72
2022/10/17 06:24:38;;;;;;;17.63;11.25;;;;;;;8.42;68.44;101069.97;5008236;28;20090;-70
2022/10/17 06:27:04;;;;;;;18.45;11.45;;;;;;;8.68;66.99;101069.09;5006445;28;20397;-78
2022/10/17 06:29:29;;;;;;;14.65;9.52;;;;;;;8.88;66.11;101078.53;5004338;28;20470;-71
2022/10/17 06:31:55;;;;;;;16.38;10.60;;;;;;;8.95;65.09;101079.09;5009696;28;20449;-68
2022/10/17 06:34:20;;;;;;;18.08;11.10;;;;;;;8.76;65.75;101082.47;5003219;28;20050;-70
2022/10/17 06:36:46;;;;;;;16.23;10.65;;;;;;;8.72;66.70;101078.59;5009487;28;20615;-71
2022/10/17 06:39:12;;;;;;;14.73;11.10;;;;;;;8.79;66.20;101086.66;5009028;28;20436;-70
2022/10/17 06:41:42;;;;;;;16.90;10.50;;;;;;;8.85;66.42;101083.56;5005513;28;21067;-75
2022/10/17 06:44:10;;;;;;;16.52;11.55;;;;;;;8.78;66.15;101085.81;5009000;28;20030;-71
2022/10/17 06:46:36;;;;;;;16.45;10.88;;;;;;;8.80;65.16;101094.72;5009333;28;20057;-70
2022/10/17 06:49:03;;;;;;;16.80;11.15;;;;;;;8.99;66.03;101083.81;5008936;28;20116;-74
2022/10/17 06:51:29;;;;;;;18.38;10.73;;;;;;;9.24;64.04;101092.34;5008978;28;20480;-73
2022/10/17 06:53:57;;;;;;;19.65;11.70;;;;;;;9.49;63.35;101085.81;5002997;28;20381;-71
2022/10/17 06:56:22;;;;;;;17.88;11.88;;;;;;;9.26;63.47;101081.72;5003422;28;20799;-71
2022/10/17 06:58:49;;;;;;;24.23;10.90;;;;;;;9.28;63.61;101085.06;4996195;28;20026;-70
2022/10/17 07:01:15;;;;;;;20.00;11.23;;;;;;;9.15;64.39;101094.06;5000811;28;20389;-70
2022/10/17 07:03:40;;;;;;;15.70;11.43;;;;;;;9.45;64.11;101093.06;5003956;28;20034;-69
2022/10/17 07:06:06;;;;;;;18.10;11.65;;;;;;;9.62;63.26;101086.28;5000600;28;20145;-69
2022/10/17 07:08:32;;;;;;;16.75;10.20;;;;;;;9.61;63.14;101095.81;5000560;28;20029;-72
2022/10/17 07:10:58;;;;;;;21.80;12.18;;;;;;;9.56;62.98;101091.06;5008227;28;20038;-69
2022/10/17 07:13:23;;;;;;;42.53;12.23;;;;;;;9.83;62.90;101093.41;5009952;28;20055;-72
2022/10/17 07:15:49;;;;;;;22.88;13.23;;;;;;;9.98;63.65;101095.25;5008943;28;20034;-72
2022/10/17 07:18:14;;;;;;;20.65;12.73;;;;;;;10.21;62.33;101092.81;5009226;28;20084;-70
2022/10/17 07:20:40;;;;;;;21.13;13.73;;;;;;;10.46;61.25;101102.13;5013954;28;20088;-71
2022/10/17 07:23:06;;;;;;;28.55;13.20;;;;;;;10.54;61.18;101100.66;5015508;28;20459;-71
2022/10/17 07:25:32;;;;;;;35.17;14.00;;;;;;;10.73;60.29;101105.53;5014255;28;20056;-71
2022/10/17 07:27:58;;;;;;;22.52;13.18;;;;;;;10.51;60.67;101099.31;5014373;28;20060;-71
2022/10/17 07:30:24;;;;;;;20.08;13.18;;;;;;;10.91;59.85;101093.53;5014338;28;20053;-71
2022/10/17 07:32:53;;;;;;;18.55;12.57;;;;;;;10.94;59.15;101095.78;5011018;28;20080;-70
2022/10/17 07:35:18;;;;;;;18.80;10.88;;;;;;;11.22;57.65;101092.34;5012879;28;20034;-70
2022/10/17 07:37:44;;;;;;;21.25;10.98;;;;;;;11.00;57.54;101101.31;5013381;28;20056;-70
2022/10/17 07:40:10;;;;;;;20.58;10.50;;;;;;;11.32;56.89;101099.78;5011482;28;20023;-70
2022/10/17 07:42:36;;;;;;;15.43;10.27;;;;;;;11.38;56.57;101102.22;5015011;28;20091;-69
2022/10/17 07:45:02;;;;;;;13.05;10.50;;;;;;;11.74;56.00;101102.84;5014841;28;20481;-70
2022/10/17 07:47:29;;;;;;;22.77;9.65;;;;;;;11.84;55.39;101107.47;5012492;28;20025;-77
2022/10/17 07:49:55;;;;;;;14.43;9.25;;;;;;;11.89;55.89;101099.81;5014006;28;20076;-75
2022/10/17 07:52:21;;;;;;;20.98;10.35;;;;;;;12.33;54.14;101097.72;5013311;28;20021;-70
2022/10/17 07:54:47;;;;;;;14.38;10.13;;;;;;;12.52;53.69;101094.03;5007189;28;20026;-72
2022/10/17 07:57:12;;;;;;;13.80;8.63;;;;;;;12.95;52.32;101094.91;5013914;28;20026;-70
2022/10/17 07:59:38;;;;;;;12.40;9.20;;;;;;;13.20;50.73;101090.75;5011598;28;20022;-73
2022/10/17 08:02:03;;;;;;;15.40;9.25;;;;;;;13.42;50.38;101089.16;5012475;28;20036;-69
2022/10/17 08:21:00;;;;;;;12.95;9.60;;;;;;;14.62;47.11;101082.34;5145045;27;20541;-68
2022/10/17 08:23:26;;;;;;;15.57;9.65;;;;;;;14.05;47.85;101080.97;5111531;28;20054;-69
2022/10/17 08:25:51;;;;;;;18.90;10.05;;;;;;;14.27;48.24;101070.88;5108273;28;20047;-69
2022/10/17 08:28:17;;;;;;;14.45;9.55;;;;;;;14.37;47.38;101069.75;5107809;28;20468;-69
2022/10/17 08:30:42;;;;;;;15.73;10.35;;;;;;;14.69;47.32;101081.88;5106949;28;20024;-68
2022/10/17 08:33:08;;;;;;;12.98;10.00;;;;;;;14.80;46.91;101071.19;5105981;28;20016;-71
2022/10/17 08:35:33;;;;;;;17.00;11.10;;;;;;;14.98;46.97;101078.56;5105342;28;20028;-70
2022/10/17 08:38:01;;;;;;;20.08;11.55;;;;;;;15.34;46.50;101067.38;5096934;28;20050;-70
2022/10/17 08:40:29;;;;;;;15.05;11.20;;;;;;;15.62;45.65;101078.34;5102591;28;20024;-70
2022/10/17 08:43:08;;;;;;;12.48;10.93;;;;;;;15.25;46.08;101081.44;5104799;28;20658;-70
2022/10/17 08:45:43;;;;;;;16.98;10.77;;;;;;;15.71;46.19;101074.38;5103653;28;20028;-69
2022/10/17 08:48:13;;;;;;;16.75;10.43;;;;;;;15.92;44.86;101067.25;5086441;28;20024;-69
2022/10/17 08:50:46;;;;;;;17.15;10.73;;;;;;;15.48;45.20;101072.84;5087925;28;20035;-68
2022/10/17 08:53:18;;;;;;;13.45;9.05;;;;;;;15.46;44.96;101061.91;5092241;28;20043;-68
2022/10/17 08:55:48;;;;;;;16.00;9.85;;;;;;;15.33;45.47;101071.34;5107714;28;20024;-68
2022/10/17 08:58:25;;;;;;;18.73;9.23;;;;;;;15.44;46.31;101067.03;5107939;28;20515;-67
2022/10/17 09:01:21;;;;;;;16.98;10.48;;;;;;;15.67;45.62;101066.91;5106814;28;20038;-68
2022/10/17 09:04:08;;;;;;;12.63;9.05;;;;;;;16.12;44.81;101071.41;5107042;28;20479;-67
2022/10/17 09:06:38;;;;;;;11.57;9.57;;;;;;;16.45;44.00;101058.72;5087294;28;20590;-67
2022/10/17 09:09:31;;;;;;;16.20;9.13;;;;;;;16.57;43.86;101061.69;5086024;28;20016;-68
2022/10/17 09:12:26;;;;;;;16.65;9.65;;;;;;;16.58;44.17;101056.84;5087411;28;20032;-67
2022/10/17 09:15:13;;;;;;;11.68;8.68;;;;;;;16.60;43.06;101058.16;5090031;28;20016;-67
2022/10/17 09:17:57;;;;;;;14.32;9.43;;;;;;;16.71;43.20;101058.63;5094931;28;20027;-68
2022/10/17 09:20:31;;;;;;;17.52;8.75;;;;;;;16.81;41.88;101058.25;5098150;28;20039;-69
2022/10/17 09:23:20;;;;;;;12.35;8.63;;;;;;;17.14;41.34;101051.16;5073733;28;20608;-68
2022/10/17 09:25:55;;;;;;;12.88;7.65;;;;;;;17.01;40.96;101052.19;5073738;28;20115;-69
2022/10/17 09:28:37;;;;;;;12.40;8.30;;;;;;;17.08;41.88;101049.69;5073844;28;20020;-69
2022/10/17 09:31:22;;;;;;;13.50;8.75;;;;;;;16.47;41.64;101048.75;5077863;28;20028;-69
2022/10/17 09:33:53;;;;;;;13.05;8.15;;;;;;;17.14;41.38;101044.66;5072231;28;20035;-69
2022/10/17 09:36:24;;;;;;;12.02;8.80;;;;;;;17.10;41.57;101045.34;5073695;28;20012;-70
2022/10/17 09:38:54;;;;;;;12.30;8.38;;;;;;;17.30;40.32;101042.06;5073862;28;20078;-69
2022/10/17 09:41:31;;;;;;;11.90;8.07;;;;;;;17.51;39.79;101039.25;5086385;28;20111;-68
2022/10/17 09:43:58;;;;;;;14.38;8.20;;;;;;;17.60;40.17;101044.84;5079191;28;20020;-70
2022/10/17 09:46:29;;;;;;;11.57;7.88;;;;;;;17.61;38.83;101029.50;5088302;28;20123;-68
2022/10/17 09:49:02;;;;;;;15.88;7.55;;;;;;;17.81;38.62;101037.16;5091841;28;20565;-71
2022/10/17 09:51:29;;;;;;;16.33;8.32;;;;;;;17.75;38.61;101034.91;5091807;28;20050;-69
2022/10/17 09:54:00;;;;;;;15.82;7.85;;;;;;;17.90;38.57;101034.25;5091687;28;20020;-69
2022/10/17 09:56:25;;;;;;;14.55;7.00;;;;;;;17.90;38.11;101031.41;5084078;28;20051;-70
2022/10/17 09:58:56;;;;;;;12.43;6.63;;;;;;;17.94;37.20;101031.56;5093107;28;20047;-70
2022/10/17 10:01:23;;;;;;;11.00;7.72;;;;;;;18.13;38.27;101028.25;5093178;28;20133;-69
2022/10/17 10:04:10;;;;;;;12.82;7.82;;;;;;;18.30;38.22;101032.88;5090900;28;20029;-69
2022/10/17 10:06:37;;;;;;;17.88;9.00;;;;;;;18.17;37.81;101028.38;5088486;28;20028;-71
2022/10/17 10:09:05;;;;;;;23.50;7.82;;;;;;;18.38;37.76;101028.31;5108316;28;20106;-70
2022/10/17 10:11:53;;;;;;;10.60;7.50;;;;;;;18.40;36.95;101017.44;5110113;28;20019;-67
2022/10/17 10:14:21;;;;;;;12.15;7.82;;;;;;;18.58;36.71;101015.25;5089505;28;20106;-67
2022/10/17 10:16:48;;;;;;;14.02;7.20;;;;;;;18.53;35.96;101006.97;5086061;28;20107;-68
2022/10/17 10:19:35;;;;;;;11.68;6.18;;;;;;;18.51;34.14;101012.16;5082010;28;20051;-67
2022/10/17 10:22:03;;;;;;;14.73;6.20;;;;;;;18.62;35.12;101009.69;5084218;28;20020;-67
2022/10/17 10:24:30;;;;;;;12.25;5.93;;;;;;;18.82;34.31;101012.78;5084799;28;20047;-67
2022/10/17 10:26:59;;;;;;;9.20;6.63;;;;;;;18.91;33.91;101007.81;5086588;28;20395;-67
2022/10/17 10:29:31;;;;;;;15.35;7.63;;;;;;;18.85;35.17;100998.72;5084289;28;20566;-67
2022/10/17 10:32:26;;;;;;;17.15;7.60;;;;;;;19.03;35.65;100990.00;5085360;28;20024;-67
2022/10/17 10:35:15;;;;;;;10.50;5.50;;;;;;;19.09;31.32;100991.41;5088429;28;20020;-67
2022/10/17 10:37:43;;;;;;;7.00;5.37;;;;;;;19.02;32.15;100996.84;5089398;28;20036;-67
2022/10/17 10:40:20;;;;;;;24.75;5.82;;;;;;;19.21;33.37;100990.56;5085300;28;20493;-67
2022/10/17 10:42:59;;;;;;;10.45;6.15;;;;;;;19.49;32.48;100978.44;5089522;28;20045;-68
2022/10/17 10:45:28;;;;;;;7.72;5.47;;;;;;;19.48;32.87;100979.59;5085674;28;20101;-67
2022/10/17 10:47:58;;;;;;;10.80;6.25;;;;;;;19.50;31.79;100982.94;5090292;28;20070;-67
2022/10/17 10:50:35;;;;;;;10.05;5.30;;;;;;;19.45;32.52;100986.00;5088013;28;20039;-67
2022/10/17 10:53:24;;;;;;;8.13;4.95;;;;;;;19.61;31.22;100994.59;5082059;28;20103;-67
2022/10/17 10:55:53;;;;;;;13.82;5.18;;;;;;;19.70;30.56;100992.44;5080308;28;20110;-68
2022/10/17 10:58:24;;;;;;;6.72;4.40;;;;;;;19.21;30.64;100977.22;5084254;28;20028;-67
2022/10/17 11:00:50;;;;;;;9.70;5.63;;;;;;;19.70;30.52;100975.41;5085459;28;20056;-67
2022/10/17 11:03:30;;;;;;;9.73;5.95;;;;;;;19.91;31.48;100975.19;5083206;28;20031;-68
2022/10/17 11:06:02;;;;;;;9.48;4.93;;;;;;;19.86;30.07;100974.63;5082580;28;20035;-67
2022/10/17 11:08:36;;;;;;;8.23;4.90;;;;;;;19.89;29.81;100973.88;5088298;28;20032;-69
2022/10/17 11:11:16;;;;;;;7.53;4.47;;;;;;;19.87;29.09;100979.09;5078550;28;20027;-68
2022/10/17 11:14:02;;;;;;;;;;;;;;;20.04;27.62;100964.63;5089700;28;20032;-67
2022/10/17 11:16:40;;;;;;;4.97;3.95;;;;;;;19.93;27.46;100966.34;5074938;28;19984;-68
2022/10/17 11:19:15;;;;;;;5.70;3.75;;;;;;;19.51;28.33;100959.06;5083213;28;20442;-68
2022/10/17 11:21:46;;;;;;;4.18;3.75;;;;;;;19.75;27.50;100958.09;5077998;28;20044;-67
2022/10/17 11:24:21;;;;;;;4.97;3.80;;;;;;;20.02;27.00;100954.81;5081118;28;20028;-67
2022/10/17 11:26:58;;;;;;;9.20;3.85;;;;;;;19.97;26.71;100949.38;5088257;28;20074;-67
2022/10/17 11:29:31;;;;;;;7.43;3.70;;;;;;;20.05;26.39;100954.91;5090319;28;20067;-67
2022/10/17 11:32:06;;;;;;;6.03;3.83;;;;;;;20.13;25.62;100953.09;5078826;28;20032;-67
2022/10/17 11:34:39;;;;;;;4.25;3.83;;;;;;;19.88;27.30;100949.53;5084835;28;20081;-67
2022/10/17 11:37:14;;;;;;;7.18;4.13;;;;;;;19.84;27.82;100942.94;5090375;28;20042;-67
2022/10/17 11:39:52;;;;;;;8.20;4.15;;;;;;;19.79;27.65;100938.34;5076723;28;20078;-67
2022/10/17 11:42:27;;;;;;;5.28;3.85;;;;;;;19.83;28.07;100941.28;5079556;28;20024;-67
2022/10/17 11:44:59;;;;;;;4.93;3.72;;;;;;;20.13;26.73;100941.72;5087779;28;20031;-67
2022/10/17 11:47:31;;;;;;;6.82;3.80;;;;;;;20.24;25.99;100930.63;5077770;28;20040;-67